sensor_id;sensor_type;location;lat;lon;timestamp;P1;durP1;ratioP1;P2;durP2;ratioP2
19030;SDS011;9648;51.130;13.978;2022-07-23T00:01:51;6.43;;;4.22;;
19030;SDS011;9648;51.130;13.978;2022-07-23T00:04:18;5.32;;;3.78;;
19030;SDS011;9648;51.130;13.978;2022-07-23T00:06:46;5.43;;;4.07;;
19030;SDS011;9648;51.130;13.978;2022-07-23T00:09:12;5.18;;;3.80;;
19030;SDS011;9648;51.130;13.978;2022-07-23T00:11:39;3.60;;;3.30;;
19030;SDS011;9648;51.130;13.978;2022-07-23T00:14:06;3.97;;;3.58;;
19030;SDS011;9648;51.130;13.978;2022-07-23T00:16:32;5.80;;;3.57;;
19030;SDS011;9648;51.130;13.978;2022-07-23T00:18:59;3.85;;;3.45;;
19030;SDS011;9648;51.130;13.978;2022-07-23T00:21:27;4.55;;;3.72;;
19030;SDS011;9648;51.130;13.978;2022-07-23T00:23:55;4.03;;;3.60;;
19030;SDS011;9648;51.130;13.978;2022-07-23T00:26:22;4.28;;;3.88;;
19030;SDS011;9648;51.130;13.978;2022-07-23T00:28:48;4.70;;;3.80;;
19030;SDS011;9648;51.130;13.978;2022-07-23T00:31:15;4.17;;;3.50;;
19030;SDS011;9648;51.130;13.978;2022-07-23T00:33:42;4.57;;;3.53;;
19030;SDS011;9648;51.130;13.978;2022-07-23T00:36:09;5.33;;;3.53;;
19030;SDS011;9648;51.130;13.978;2022-07-23T00:38:35;5.25;;;3.97;;
19030;SDS011;9648;51.130;13.978;2022-07-23T00:41:03;4.00;;;3.60;;
19030;SDS011;9648;51.130;13.978;2022-07-23T00:43:30;4.82;;;3.85;;
19030;SDS011;9648;51.130;13.978;2022-07-23T00:45:57;4.65;;;3.88;;
19030;SDS011;9648;51.130;13.978;2022-07-23T00:48:24;4.07;;;3.60;;
19030;SDS011;9648;51.130;13.978;2022-07-23T00:50:50;4.57;;;3.47;;
19030;SDS011;9648;51.130;13.978;2022-07-23T00:53:17;4.25;;;3.70;;
19030;SDS011;9648;51.130;13.978;2022-07-23T00:55:45;7.05;;;3.90;;
19030;SDS011;9648;51.130;13.978;2022-07-23T00:58:14;3.70;;;3.30;;
19030;SDS011;9648;51.130;13.978;2022-07-23T01:00:42;4.07;;;3.53;;
19030;SDS011;9648;51.130;13.978;2022-07-23T01:03:09;4.50;;;3.35;;
19030;SDS011;9648;51.130;13.978;2022-07-23T01:05:35;4.20;;;3.70;;
19030;SDS011;9648;51.130;13.978;2022-07-23T01:08:03;3.85;;;3.45;;
19030;SDS011;9648;51.130;13.978;2022-07-23T01:10:30;3.93;;;3.53;;
19030;SDS011;9648;51.130;13.978;2022-07-23T01:12:57;3.50;;;3.20;;
19030;SDS011;9648;51.130;13.978;2022-07-23T01:15:25;4.00;;;3.60;;
19030;SDS011;9648;51.130;13.978;2022-07-23T01:17:52;4.55;;;3.70;;
19030;SDS011;9648;51.130;13.978;2022-07-23T01:20:19;4.35;;;3.75;;
19030;SDS011;9648;51.130;13.978;2022-07-23T01:22:47;4.47;;;3.90;;
19030;SDS011;9648;51.130;13.978;2022-07-23T01:25:14;4.60;;;3.60;;
19030;SDS011;9648;51.130;13.978;2022-07-23T01:27:41;4.65;;;3.70;;
19030;SDS011;9648;51.130;13.978;2022-07-23T01:30:08;4.00;;;3.60;;
19030;SDS011;9648;51.130;13.978;2022-07-23T01:32:36;4.60;;;3.70;;
19030;SDS011;9648;51.130;13.978;2022-07-23T01:35:03;3.97;;;3.58;;
19030;SDS011;9648;51.130;13.978;2022-07-23T01:37:31;4.30;;;3.90;;
19030;SDS011;9648;51.130;13.978;2022-07-23T01:39:59;5.72;;;4.40;;
19030;SDS011;9648;51.130;13.978;2022-07-23T01:42:25;4.40;;;4.00;;
19030;SDS011;9648;51.130;13.978;2022-07-23T01:44:52;4.53;;;4.07;;
19030;SDS011;9648;51.130;13.978;2022-07-23T01:47:19;4.63;;;4.22;;
19030;SDS011;9648;51.130;13.978;2022-07-23T01:49:46;5.22;;;4.70;;
19030;SDS011;9648;51.130;13.978;2022-07-23T01:52:12;4.78;;;4.28;;
19030;SDS011;9648;51.130;13.978;2022-07-23T01:54:39;4.55;;;4.15;;
19030;SDS011;9648;51.130;13.978;2022-07-23T01:57:07;4.40;;;4.00;;
19030;SDS011;9648;51.130;13.978;2022-07-23T01:59:34;4.65;;;4.10;;
19030;SDS011;9648;51.130;13.978;2022-07-23T02:02:01;4.30;;;3.90;;
19030;SDS011;9648;51.130;13.978;2022-07-23T02:04:30;4.30;;;3.90;;
19030;SDS011;9648;51.130;13.978;2022-07-23T02:07:00;3.90;;;3.60;;
19030;SDS011;9648;51.130;13.978;2022-07-23T02:09:27;4.30;;;3.90;;
19030;SDS011;9648;51.130;13.978;2022-07-23T02:11:53;4.25;;;3.85;;
19030;SDS011;9648;51.130;13.978;2022-07-23T02:14:21;4.80;;;3.75;;
19030;SDS011;9648;51.130;13.978;2022-07-23T02:16:48;4.40;;;4.00;;
19030;SDS011;9648;51.130;13.978;2022-07-23T02:19:14;4.40;;;4.00;;
19030;SDS011;9648;51.130;13.978;2022-07-23T02:21:41;5.30;;;4.50;;
19030;SDS011;9648;51.130;13.978;2022-07-23T02:24:08;5.15;;;4.60;;
19030;SDS011;9648;51.130;13.978;2022-07-23T02:26:34;4.55;;;4.15;;
19030;SDS011;9648;51.130;13.978;2022-07-23T02:29:02;4.87;;;4.03;;
19030;SDS011;9648;51.130;13.978;2022-07-23T02:31:31;4.50;;;4.10;;
19030;SDS011;9648;51.130;13.978;2022-07-23T02:33:57;4.10;;;3.80;;
19030;SDS011;9648;51.130;13.978;2022-07-23T02:36:24;4.07;;;3.70;;
19030;SDS011;9648;51.130;13.978;2022-07-23T02:38:51;4.63;;;4.00;;
19030;SDS011;9648;51.130;13.978;2022-07-23T02:41:17;4.25;;;3.85;;
19030;SDS011;9648;51.130;13.978;2022-07-23T02:43:44;4.30;;;3.85;;
19030;SDS011;9648;51.130;13.978;2022-07-23T02:46:11;4.37;;;3.97;;
19030;SDS011;9648;51.130;13.978;2022-07-23T02:48:39;4.57;;;4.18;;
19030;SDS011;9648;51.130;13.978;2022-07-23T02:51:06;4.50;;;4.10;;
19030;SDS011;9648;51.130;13.978;2022-07-23T02:53:32;5.75;;;4.65;;
19030;SDS011;9648;51.130;13.978;2022-07-23T02:55:59;4.50;;;4.10;;
19030;SDS011;9648;51.130;13.978;2022-07-23T02:58:26;4.78;;;4.28;;
19030;SDS011;9648;51.130;13.978;2022-07-23T03:00:52;4.65;;;4.25;;
19030;SDS011;9648;51.130;13.978;2022-07-23T03:03:19;6.18;;;4.75;;
19030;SDS011;9648;51.130;13.978;2022-07-23T03:05:47;4.95;;;4.53;;
19030;SDS011;9648;51.130;13.978;2022-07-23T03:08:14;4.93;;;4.43;;
19030;SDS011;9648;51.130;13.978;2022-07-23T03:10:40;4.85;;;4.45;;
19030;SDS011;9648;51.130;13.978;2022-07-23T03:13:07;5.45;;;4.95;;
19030;SDS011;9648;51.130;13.978;2022-07-23T03:15:34;5.50;;;4.80;;
19030;SDS011;9648;51.130;13.978;2022-07-23T03:18:00;7.00;;;5.20;;
19030;SDS011;9648;51.130;13.978;2022-07-23T03:20:27;5.13;;;4.63;;
19030;SDS011;9648;51.130;13.978;2022-07-23T03:22:55;5.20;;;4.60;;
19030;SDS011;9648;51.130;13.978;2022-07-23T03:25:22;4.78;;;4.22;;
19030;SDS011;9648;51.130;13.978;2022-07-23T03:27:49;5.17;;;4.47;;
19030;SDS011;9648;51.130;13.978;2022-07-23T03:30:15;4.72;;;4.32;;
19030;SDS011;9648;51.130;13.978;2022-07-23T03:32:42;4.75;;;4.25;;
19030;SDS011;9648;51.130;13.978;2022-07-23T03:35:09;4.32;;;3.92;;
19030;SDS011;9648;51.130;13.978;2022-07-23T03:37:36;4.82;;;4.32;;
19030;SDS011;9648;51.130;13.978;2022-07-23T03:40:05;5.20;;;4.70;;
19030;SDS011;9648;51.130;13.978;2022-07-23T03:42:32;4.90;;;4.20;;
19030;SDS011;9648;51.130;13.978;2022-07-23T03:44:59;5.47;;;4.85;;
19030;SDS011;9648;51.130;13.978;2022-07-23T03:47:26;5.43;;;4.90;;
19030;SDS011;9648;51.130;13.978;2022-07-23T03:49:53;5.10;;;4.70;;
19030;SDS011;9648;51.130;13.978;2022-07-23T03:52:19;6.03;;;5.10;;
19030;SDS011;9648;51.130;13.978;2022-07-23T03:54:46;6.07;;;4.63;;
19030;SDS011;9648;51.130;13.978;2022-07-23T03:57:14;6.32;;;4.80;;
19030;SDS011;9648;51.130;13.978;2022-07-23T03:59:41;5.60;;;5.00;;
19030;SDS011;9648;51.130;13.978;2022-07-23T04:02:07;4.75;;;4.35;;
19030;SDS011;9648;51.130;13.978;2022-07-23T04:04:34;5.80;;;4.95;;
19030;SDS011;9648;51.130;13.978;2022-07-23T04:07:00;4.60;;;4.20;;
19030;SDS011;9648;51.130;13.978;2022-07-23T04:09:27;5.30;;;4.75;;
19030;SDS011;9648;51.130;13.978;2022-07-23T04:11:54;6.95;;;4.80;;
19030;SDS011;9648;51.130;13.978;2022-07-23T04:14:22;6.32;;;5.20;;
19030;SDS011;9648;51.130;13.978;2022-07-23T04:16:48;5.25;;;4.75;;
19030;SDS011;9648;51.130;13.978;2022-07-23T04:19:15;6.43;;;5.10;;
19030;SDS011;9648;51.130;13.978;2022-07-23T04:21:42;7.93;;;5.47;;
19030;SDS011;9648;51.130;13.978;2022-07-23T04:24:08;5.35;;;4.80;;
19030;SDS011;9648;51.130;13.978;2022-07-23T04:26:35;5.07;;;4.57;;
19030;SDS011;9648;51.130;13.978;2022-07-23T04:29:02;5.03;;;4.53;;
19030;SDS011;9648;51.130;13.978;2022-07-23T04:31:30;5.57;;;5.00;;
19030;SDS011;9648;51.130;13.978;2022-07-23T04:33:56;5.15;;;4.65;;
19030;SDS011;9648;51.130;13.978;2022-07-23T04:36:23;6.35;;;5.32;;
19030;SDS011;9648;51.130;13.978;2022-07-23T04:38:49;8.02;;;5.25;;
19030;SDS011;9648;51.130;13.978;2022-07-23T04:41:16;7.25;;;5.55;;
19030;SDS011;9648;51.130;13.978;2022-07-23T04:43:43;5.32;;;4.82;;
19030;SDS011;9648;51.130;13.978;2022-07-23T04:46:09;8.27;;;5.28;;
19030;SDS011;9648;51.130;13.978;2022-07-23T04:48:37;6.45;;;4.90;;
19030;SDS011;9648;51.130;13.978;2022-07-23T04:51:04;8.57;;;4.90;;
19030;SDS011;9648;51.130;13.978;2022-07-23T04:53:31;5.03;;;4.63;;
19030;SDS011;9648;51.130;13.978;2022-07-23T04:55:58;6.68;;;5.43;;
19030;SDS011;9648;51.130;13.978;2022-07-23T04:58:24;7.50;;;5.20;;
19030;SDS011;9648;51.130;13.978;2022-07-23T05:00:51;7.15;;;5.35;;
19030;SDS011;9648;51.130;13.978;2022-07-23T05:03:18;7.22;;;5.75;;
19030;SDS011;9648;51.130;13.978;2022-07-23T05:05:46;6.28;;;5.68;;
19030;SDS011;9648;51.130;13.978;2022-07-23T05:08:12;10.15;;;6.30;;
19030;SDS011;9648;51.130;13.978;2022-07-23T05:10:39;6.47;;;5.82;;
19030;SDS011;9648;51.130;13.978;2022-07-23T05:13:05;6.50;;;5.80;;
19030;SDS011;9648;51.130;13.978;2022-07-23T05:15:32;6.97;;;6.33;;
19030;SDS011;9648;51.130;13.978;2022-07-23T05:17:59;6.20;;;5.60;;
19030;SDS011;9648;51.130;13.978;2022-07-23T05:20:26;6.68;;;5.95;;
19030;SDS011;9648;51.130;13.978;2022-07-23T05:22:54;6.75;;;5.85;;
19030;SDS011;9648;51.130;13.978;2022-07-23T05:25:20;6.55;;;5.85;;
19030;SDS011;9648;51.130;13.978;2022-07-23T05:27:47;6.93;;;5.90;;
19030;SDS011;9648;51.130;13.978;2022-07-23T05:30:13;6.90;;;5.90;;
19030;SDS011;9648;51.130;13.978;2022-07-23T05:32:40;6.97;;;6.18;;
19030;SDS011;9648;51.130;13.978;2022-07-23T05:35:07;6.85;;;6.13;;
19030;SDS011;9648;51.130;13.978;2022-07-23T05:37:34;7.95;;;5.97;;
19030;SDS011;9648;51.130;13.978;2022-07-23T05:40:03;6.40;;;5.80;;
19030;SDS011;9648;51.130;13.978;2022-07-23T05:42:32;6.95;;;6.25;;
19030;SDS011;9648;51.130;13.978;2022-07-23T05:44:59;7.57;;;6.68;;
19030;SDS011;9648;51.130;13.978;2022-07-23T05:47:25;7.72;;;6.18;;
19030;SDS011;9648;51.130;13.978;2022-07-23T05:49:52;7.75;;;6.28;;
19030;SDS011;9648;51.130;13.978;2022-07-23T05:52:19;8.93;;;6.68;;
19030;SDS011;9648;51.130;13.978;2022-07-23T05:54:45;7.05;;;6.35;;
19030;SDS011;9648;51.130;13.978;2022-07-23T05:57:13;6.20;;;5.60;;
19030;SDS011;9648;51.130;13.978;2022-07-23T05:59:40;6.22;;;5.63;;
19030;SDS011;9648;51.130;13.978;2022-07-23T06:02:06;6.72;;;6.00;;
19030;SDS011;9648;51.130;13.978;2022-07-23T06:04:33;6.93;;;5.97;;
19030;SDS011;9648;51.130;13.978;2022-07-23T06:06:59;6.37;;;5.60;;
19030;SDS011;9648;51.130;13.978;2022-07-23T06:09:26;6.47;;;5.72;;
19030;SDS011;9648;51.130;13.978;2022-07-23T06:11:53;7.13;;;5.30;;
19030;SDS011;9648;51.130;13.978;2022-07-23T06:14:21;7.13;;;5.40;;
19030;SDS011;9648;51.130;13.978;2022-07-23T06:16:48;6.93;;;4.93;;
19030;SDS011;9648;51.130;13.978;2022-07-23T06:19:14;5.72;;;5.13;;
19030;SDS011;9648;51.130;13.978;2022-07-23T06:21:41;6.03;;;5.10;;
19030;SDS011;9648;51.130;13.978;2022-07-23T06:24:08;6.85;;;5.05;;
19030;SDS011;9648;51.130;13.978;2022-07-23T06:26:35;6.68;;;4.45;;
19030;SDS011;9648;51.130;13.978;2022-07-23T06:29:01;5.53;;;4.00;;
19030;SDS011;9648;51.130;13.978;2022-07-23T06:31:29;4.50;;;3.80;;
19030;SDS011;9648;51.130;13.978;2022-07-23T06:33:56;5.25;;;4.10;;
19030;SDS011;9648;51.130;13.978;2022-07-23T06:36:23;4.85;;;3.90;;
19030;SDS011;9648;51.130;13.978;2022-07-23T06:38:49;5.82;;;4.47;;
19030;SDS011;9648;51.130;13.978;2022-07-23T06:41:16;5.63;;;4.00;;
19030;SDS011;9648;51.130;13.978;2022-07-23T06:43:42;5.30;;;4.10;;
19030;SDS011;9648;51.130;13.978;2022-07-23T06:46:09;6.18;;;4.30;;
19030;SDS011;9648;51.130;13.978;2022-07-23T06:48:37;5.53;;;4.38;;
19030;SDS011;9648;51.130;13.978;2022-07-23T06:51:04;4.50;;;4.10;;
19030;SDS011;9648;51.130;13.978;2022-07-23T06:53:31;4.55;;;4.00;;
19030;SDS011;9648;51.130;13.978;2022-07-23T06:55:57;5.55;;;4.38;;
19030;SDS011;9648;51.130;13.978;2022-07-23T06:58:24;5.43;;;4.47;;
19030;SDS011;9648;51.130;13.978;2022-07-23T07:00:51;6.60;;;4.93;;
19030;SDS011;9648;51.130;13.978;2022-07-23T07:03:17;6.38;;;4.90;;
19030;SDS011;9648;51.130;13.978;2022-07-23T07:05:45;6.55;;;5.07;;
19030;SDS011;9648;51.130;13.978;2022-07-23T07:08:12;7.38;;;5.28;;
19030;SDS011;9648;51.130;13.978;2022-07-23T07:10:39;7.55;;;5.63;;
19030;SDS011;9648;51.130;13.978;2022-07-23T07:13:05;6.35;;;5.30;;
19030;SDS011;9648;51.130;13.978;2022-07-23T07:15:32;8.35;;;6.07;;
19030;SDS011;9648;51.130;13.978;2022-07-23T07:17:59;6.67;;;5.93;;
19030;SDS011;9648;51.130;13.978;2022-07-23T07:20:26;7.78;;;6.25;;
19030;SDS011;9648;51.130;13.978;2022-07-23T07:22:54;7.35;;;6.05;;
19030;SDS011;9648;51.130;13.978;2022-07-23T07:25:20;9.35;;;7.60;;
19030;SDS011;9648;51.130;13.978;2022-07-23T07:27:47;9.63;;;7.45;;
19030;SDS011;9648;51.130;13.978;2022-07-23T07:30:14;8.85;;;7.95;;
19030;SDS011;9648;51.130;13.978;2022-07-23T07:32:40;8.20;;;7.38;;
19030;SDS011;9648;51.130;13.978;2022-07-23T07:35:07;7.93;;;7.13;;
19030;SDS011;9648;51.130;13.978;2022-07-23T07:37:34;7.60;;;6.73;;
19030;SDS011;9648;51.130;13.978;2022-07-23T07:40:03;8.07;;;6.95;;
19030;SDS011;9648;51.130;13.978;2022-07-23T07:42:30;8.05;;;7.25;;
19030;SDS011;9648;51.130;13.978;2022-07-23T07:44:57;7.57;;;6.88;;
19030;SDS011;9648;51.130;13.978;2022-07-23T07:47:24;7.93;;;7.00;;
19030;SDS011;9648;51.130;13.978;2022-07-23T07:49:50;10.77;;;8.10;;
19030;SDS011;9648;51.130;13.978;2022-07-23T07:52:17;9.48;;;7.70;;
19030;SDS011;9648;51.130;13.978;2022-07-23T07:54:44;9.27;;;7.80;;
19030;SDS011;9648;51.130;13.978;2022-07-23T07:57:12;8.02;;;6.80;;
19030;SDS011;9648;51.130;13.978;2022-07-23T07:59:39;7.75;;;6.95;;
19030;SDS011;9648;51.130;13.978;2022-07-23T08:02:05;7.45;;;6.20;;
19030;SDS011;9648;51.130;13.978;2022-07-23T08:04:32;8.43;;;6.03;;
19030;SDS011;9648;51.130;13.978;2022-07-23T08:06:59;7.65;;;5.30;;
19030;SDS011;9648;51.130;13.978;2022-07-23T08:09:26;7.50;;;5.50;;
19030;SDS011;9648;51.130;13.978;2022-07-23T08:11:52;5.40;;;4.90;;
19030;SDS011;9648;51.130;13.978;2022-07-23T08:14:20;5.75;;;4.88;;
19030;SDS011;9648;51.130;13.978;2022-07-23T08:16:47;7.15;;;4.82;;
19030;SDS011;9648;51.130;13.978;2022-07-23T08:19:13;4.93;;;4.43;;
19030;SDS011;9648;51.130;13.978;2022-07-23T08:21:40;7.18;;;4.85;;
19030;SDS011;9648;51.130;13.978;2022-07-23T08:24:07;5.88;;;4.80;;
19030;SDS011;9648;51.130;13.978;2022-07-23T08:26:33;6.18;;;4.40;;
19030;SDS011;9648;51.130;13.978;2022-07-23T08:29:00;5.47;;;4.50;;
19030;SDS011;9648;51.130;13.978;2022-07-23T08:31:28;5.95;;;4.57;;
19030;SDS011;9648;51.130;13.978;2022-07-23T08:33:54;5.65;;;4.32;;
19030;SDS011;9648;51.130;13.978;2022-07-23T08:36:22;5.57;;;4.53;;
19030;SDS011;9648;51.130;13.978;2022-07-23T08:38:48;6.20;;;4.57;;
19030;SDS011;9648;51.130;13.978;2022-07-23T08:41:15;6.45;;;4.45;;
19030;SDS011;9648;51.130;13.978;2022-07-23T08:43:42;6.13;;;4.35;;
19030;SDS011;9648;51.130;13.978;2022-07-23T08:46:10;5.23;;;4.70;;
19030;SDS011;9648;51.130;13.978;2022-07-23T08:48:39;5.10;;;3.90;;
19030;SDS011;9648;51.130;13.978;2022-07-23T08:51:06;5.18;;;4.25;;
19030;SDS011;9648;51.130;13.978;2022-07-23T08:53:35;5.93;;;4.63;;
19030;SDS011;9648;51.130;13.978;2022-07-23T08:56:04;6.00;;;4.18;;
19030;SDS011;9648;51.130;13.978;2022-07-23T08:58:31;5.63;;;4.40;;
19030;SDS011;9648;51.130;13.978;2022-07-23T09:00:58;8.20;;;5.00;;
19030;SDS011;9648;51.130;13.978;2022-07-23T09:03:27;4.80;;;4.27;;
19030;SDS011;9648;51.130;13.978;2022-07-23T09:05:57;7.13;;;4.93;;
19030;SDS011;9648;51.130;13.978;2022-07-23T09:08:24;6.05;;;4.68;;
19030;SDS011;9648;51.130;13.978;2022-07-23T09:10:54;6.32;;;5.05;;
19030;SDS011;9648;51.130;13.978;2022-07-23T09:13:25;8.38;;;5.13;;
19030;SDS011;9648;51.130;13.978;2022-07-23T09:15:58;6.40;;;4.72;;
19030;SDS011;9648;51.130;13.978;2022-07-23T09:18:30;7.80;;;5.00;;
19030;SDS011;9648;51.130;13.978;2022-07-23T09:21:13;8.50;;;5.00;;
19030;SDS011;9648;51.130;13.978;2022-07-23T09:23:42;5.53;;;4.28;;
19030;SDS011;9648;51.130;13.978;2022-07-23T09:26:23;5.78;;;4.38;;
19030;SDS011;9648;51.130;13.978;2022-07-23T09:28:58;7.13;;;4.57;;
19030;SDS011;9648;51.130;13.978;2022-07-23T09:31:31;6.20;;;4.80;;
19030;SDS011;9648;51.130;13.978;2022-07-23T09:34:11;4.82;;;4.10;;
19030;SDS011;9648;51.130;13.978;2022-07-23T09:36:41;5.13;;;4.18;;
19030;SDS011;9648;51.130;13.978;2022-07-23T09:39:09;5.28;;;4.50;;
19030;SDS011;9648;51.130;13.978;2022-07-23T09:41:38;6.30;;;4.60;;
19030;SDS011;9648;51.130;13.978;2022-07-23T09:44:08;6.40;;;4.43;;
19030;SDS011;9648;51.130;13.978;2022-07-23T09:46:36;6.33;;;5.03;;
19030;SDS011;9648;51.130;13.978;2022-07-23T09:49:09;6.18;;;4.32;;
19030;SDS011;9648;51.130;13.978;2022-07-23T09:51:44;5.85;;;4.22;;
19030;SDS011;9648;51.130;13.978;2022-07-23T09:54:20;5.60;;;4.80;;
19030;SDS011;9648;51.130;13.978;2022-07-23T09:56:52;5.47;;;4.63;;
19030;SDS011;9648;51.130;13.978;2022-07-23T09:59:22;5.25;;;4.40;;
19030;SDS011;9648;51.130;13.978;2022-07-23T10:01:50;7.10;;;4.55;;
19030;SDS011;9648;51.130;13.978;2022-07-23T10:04:18;4.82;;;4.00;;
19030;SDS011;9648;51.130;13.978;2022-07-23T10:06:47;5.75;;;4.45;;
19030;SDS011;9648;51.130;13.978;2022-07-23T10:09:17;5.20;;;4.30;;
19030;SDS011;9648;51.130;13.978;2022-07-23T10:11:50;4.93;;;3.90;;
19030;SDS011;9648;51.130;13.978;2022-07-23T10:14:18;7.30;;;4.70;;
19030;SDS011;9648;51.130;13.978;2022-07-23T10:16:44;6.80;;;4.38;;
19030;SDS011;9648;51.130;13.978;2022-07-23T10:19:11;6.27;;;4.43;;
19030;SDS011;9648;51.130;13.978;2022-07-23T10:21:39;5.28;;;4.10;;
19030;SDS011;9648;51.130;13.978;2022-07-23T10:24:15;6.03;;;4.25;;
19030;SDS011;9648;51.130;13.978;2022-07-23T10:26:48;6.28;;;4.80;;
19030;SDS011;9648;51.130;13.978;2022-07-23T10:29:28;6.90;;;4.95;;
19030;SDS011;9648;51.130;13.978;2022-07-23T10:32:17;6.30;;;4.80;;
19030;SDS011;9648;51.130;13.978;2022-07-23T10:34:52;5.35;;;4.22;;
19030;SDS011;9648;51.130;13.978;2022-07-23T10:37:26;5.07;;;4.57;;
19030;SDS011;9648;51.130;13.978;2022-07-23T10:40:09;5.35;;;4.38;;
19030;SDS011;9648;51.130;13.978;2022-07-23T10:42:37;5.05;;;4.55;;
19030;SDS011;9648;51.130;13.978;2022-07-23T10:47:54;5.73;;;4.60;;
19030;SDS011;9648;51.130;13.978;2022-07-23T10:50:22;6.05;;;5.00;;
19030;SDS011;9648;51.130;13.978;2022-07-23T10:53:13;6.85;;;5.22;;
19030;SDS011;9648;51.130;13.978;2022-07-23T10:55:44;5.97;;;5.00;;
19030;SDS011;9648;51.130;13.978;2022-07-23T10:58:22;7.03;;;5.20;;
19030;SDS011;9648;51.130;13.978;2022-07-23T11:03:57;6.88;;;5.07;;
19030;SDS011;9648;51.130;13.978;2022-07-23T11:06:24;5.45;;;4.95;;
19030;SDS011;9648;51.130;13.978;2022-07-23T11:09:30;7.68;;;5.10;;
19030;SDS011;9648;51.130;13.978;2022-07-23T11:15:03;6.38;;;5.53;;
19030;SDS011;9648;51.130;13.978;2022-07-23T11:17:32;5.47;;;4.70;;
19030;SDS011;9648;51.130;13.978;2022-07-23T11:20:15;5.30;;;4.80;;
19030;SDS011;9648;51.130;13.978;2022-07-23T11:22:47;6.32;;;4.40;;
19030;SDS011;9648;51.130;13.978;2022-07-23T11:25:28;6.53;;;4.80;;
19030;SDS011;9648;51.130;13.978;2022-07-23T11:28:08;8.00;;;5.17;;
19030;SDS011;9648;51.130;13.978;2022-07-23T11:30:41;5.15;;;4.63;;
19030;SDS011;9648;51.130;13.978;2022-07-23T11:33:16;5.30;;;4.30;;
19030;SDS011;9648;51.130;13.978;2022-07-23T11:35:44;5.57;;;4.85;;
19030;SDS011;9648;51.130;13.978;2022-07-23T11:38:13;4.65;;;3.80;;
19030;SDS011;9648;51.130;13.978;2022-07-23T11:40:41;6.47;;;4.22;;
19030;SDS011;9648;51.130;13.978;2022-07-23T11:43:11;5.50;;;3.75;;
19030;SDS011;9648;51.130;13.978;2022-07-23T11:45:40;8.15;;;3.85;;
19030;SDS011;9648;51.130;13.978;2022-07-23T11:48:09;5.75;;;4.38;;
19030;SDS011;9648;51.130;13.978;2022-07-23T11:50:42;7.03;;;3.95;;
19030;SDS011;9648;51.130;13.978;2022-07-23T11:53:08;5.22;;;3.75;;
19030;SDS011;9648;51.130;13.978;2022-07-23T11:55:35;7.40;;;4.13;;
19030;SDS011;9648;51.130;13.978;2022-07-23T11:58:02;5.90;;;3.90;;
19030;SDS011;9648;51.130;13.978;2022-07-23T12:00:30;4.88;;;3.80;;
19030;SDS011;9648;51.130;13.978;2022-07-23T12:02:58;6.38;;;4.15;;
19030;SDS011;9648;51.130;13.978;2022-07-23T12:05:26;5.55;;;4.10;;
19030;SDS011;9648;51.130;13.978;2022-07-23T12:07:55;5.83;;;3.90;;
19030;SDS011;9648;51.130;13.978;2022-07-23T12:10:24;7.68;;;4.63;;
19030;SDS011;9648;51.130;13.978;2022-07-23T12:12:52;4.85;;;3.90;;
19030;SDS011;9648;51.130;13.978;2022-07-23T12:15:21;5.18;;;4.38;;
19030;SDS011;9648;51.130;13.978;2022-07-23T12:17:53;5.55;;;4.30;;
19030;SDS011;9648;51.130;13.978;2022-07-23T12:20:22;8.25;;;4.70;;
19030;SDS011;9648;51.130;13.978;2022-07-23T12:22:51;6.55;;;4.82;;
19030;SDS011;9648;51.130;13.978;2022-07-23T12:25:19;6.55;;;4.60;;
19030;SDS011;9648;51.130;13.978;2022-07-23T12:27:57;6.82;;;5.03;;
19030;SDS011;9648;51.130;13.978;2022-07-23T12:30:26;7.55;;;5.28;;
19030;SDS011;9648;51.130;13.978;2022-07-23T12:32:56;7.03;;;4.80;;
19030;SDS011;9648;51.130;13.978;2022-07-23T12:35:30;6.43;;;5.15;;
19030;SDS011;9648;51.130;13.978;2022-07-23T12:38:03;7.53;;;5.28;;
19030;SDS011;9648;51.130;13.978;2022-07-23T12:40:31;8.43;;;5.60;;
19030;SDS011;9648;51.130;13.978;2022-07-23T12:43:01;7.10;;;5.20;;
19030;SDS011;9648;51.130;13.978;2022-07-23T12:45:41;8.43;;;5.43;;
19030;SDS011;9648;51.130;13.978;2022-07-23T12:48:16;6.43;;;5.40;;
19030;SDS011;9648;51.130;13.978;2022-07-23T12:50:47;7.00;;;5.27;;
19030;SDS011;9648;51.130;13.978;2022-07-23T12:53:21;7.17;;;5.80;;
19030;SDS011;9648;51.130;13.978;2022-07-23T12:55:49;7.63;;;5.65;;
19030;SDS011;9648;51.130;13.978;2022-07-23T12:58:22;6.07;;;5.45;;
19030;SDS011;9648;51.130;13.978;2022-07-23T13:00:50;9.23;;;6.18;;
19030;SDS011;9648;51.130;13.978;2022-07-23T13:03:23;7.13;;;5.80;;
19030;SDS011;9648;51.130;13.978;2022-07-23T13:05:51;6.63;;;5.93;;
19030;SDS011;9648;51.130;13.978;2022-07-23T13:08:18;7.20;;;6.10;;
19030;SDS011;9648;51.130;13.978;2022-07-23T13:10:45;7.23;;;6.53;;
19030;SDS011;9648;51.130;13.978;2022-07-23T13:13:14;7.93;;;6.30;;
19030;SDS011;9648;51.130;13.978;2022-07-23T13:15:41;8.33;;;5.17;;
19030;SDS011;9648;51.130;13.978;2022-07-23T13:18:08;7.07;;;6.00;;
19030;SDS011;9648;51.130;13.978;2022-07-23T13:20:36;5.63;;;5.13;;
19030;SDS011;9648;51.130;13.978;2022-07-23T13:23:04;7.40;;;5.25;;
19030;SDS011;9648;51.130;13.978;2022-07-23T13:25:31;9.18;;;5.45;;
19030;SDS011;9648;51.130;13.978;2022-07-23T13:27:58;5.75;;;5.07;;
19030;SDS011;9648;51.130;13.978;2022-07-23T13:30:25;5.88;;;5.03;;
19030;SDS011;9648;51.130;13.978;2022-07-23T13:32:51;6.85;;;5.53;;
19030;SDS011;9648;51.130;13.978;2022-07-23T13:35:18;6.53;;;5.85;;
19030;SDS011;9648;51.130;13.978;2022-07-23T13:37:46;7.40;;;6.40;;
19030;SDS011;9648;51.130;13.978;2022-07-23T13:40:13;6.28;;;5.40;;
19030;SDS011;9648;51.130;13.978;2022-07-23T13:42:40;7.03;;;6.33;;
19030;SDS011;9648;51.130;13.978;2022-07-23T13:45:06;7.70;;;6.78;;
19030;SDS011;9648;51.130;13.978;2022-07-23T13:47:33;8.48;;;7.15;;
19030;SDS011;9648;51.130;13.978;2022-07-23T13:50:00;7.30;;;6.57;;
19030;SDS011;9648;51.130;13.978;2022-07-23T13:52:27;7.53;;;6.70;;
19030;SDS011;9648;51.130;13.978;2022-07-23T13:54:55;9.20;;;7.57;;
19030;SDS011;9648;51.130;13.978;2022-07-23T13:57:21;7.97;;;6.72;;
19030;SDS011;9648;51.130;13.978;2022-07-23T13:59:48;10.05;;;7.50;;
19030;SDS011;9648;51.130;13.978;2022-07-23T14:02:15;7.00;;;6.30;;
19030;SDS011;9648;51.130;13.978;2022-07-23T14:04:43;6.93;;;6.22;;
19030;SDS011;9648;51.130;13.978;2022-07-23T14:07:10;8.25;;;6.13;;
19030;SDS011;9648;51.130;13.978;2022-07-23T14:09:37;22.60;;;7.38;;
19030;SDS011;9648;51.130;13.978;2022-07-23T14:12:05;8.80;;;5.75;;
19030;SDS011;9648;51.130;13.978;2022-07-23T14:14:33;6.60;;;5.47;;
19030;SDS011;9648;51.130;13.978;2022-07-23T14:16:59;7.90;;;5.57;;
19030;SDS011;9648;51.130;13.978;2022-07-23T14:19:26;6.28;;;5.43;;
19030;SDS011;9648;51.130;13.978;2022-07-23T14:21:53;7.03;;;5.70;;
19030;SDS011;9648;51.130;13.978;2022-07-23T14:24:19;6.40;;;5.53;;
19030;SDS011;9648;51.130;13.978;2022-07-23T14:26:46;5.80;;;5.20;;
19030;SDS011;9648;51.130;13.978;2022-07-23T14:29:17;5.70;;;4.93;;
19030;SDS011;9648;51.130;13.978;2022-07-23T14:31:43;6.97;;;5.10;;
19030;SDS011;9648;51.130;13.978;2022-07-23T14:34:10;6.05;;;5.40;;
19030;SDS011;9648;51.130;13.978;2022-07-23T14:36:37;5.63;;;4.70;;
19030;SDS011;9648;51.130;13.978;2022-07-23T14:39:04;5.20;;;4.45;;
19030;SDS011;9648;51.130;13.978;2022-07-23T14:41:33;5.13;;;4.63;;
19030;SDS011;9648;51.130;13.978;2022-07-23T14:44:00;5.30;;;4.80;;
19030;SDS011;9648;51.130;13.978;2022-07-23T14:46:28;5.22;;;4.72;;
19030;SDS011;9648;51.130;13.978;2022-07-23T14:48:54;5.68;;;4.78;;
19030;SDS011;9648;51.130;13.978;2022-07-23T14:51:21;5.25;;;4.60;;
19030;SDS011;9648;51.130;13.978;2022-07-23T14:53:48;5.68;;;4.68;;
19030;SDS011;9648;51.130;13.978;2022-07-23T14:56:15;6.83;;;4.73;;
19030;SDS011;9648;51.130;13.978;2022-07-23T14:58:42;5.77;;;4.97;;
19030;SDS011;9648;51.130;13.978;2022-07-23T15:01:09;6.43;;;4.90;;
19030;SDS011;9648;51.130;13.978;2022-07-23T15:03:36;6.55;;;5.00;;